createdAt,value
2023-02-02T00:00:39.536Z,78.34
2023-02-02T00:03:10.877Z,77.42
2023-02-02T00:05:38.776Z,78.52
2023-02-02T00:08:10.126Z,77.57
2023-02-02T00:10:45.304Z,77.16
2023-02-02T00:13:15.228Z,79.04
2023-02-02T00:15:43.058Z,78.32
2023-02-02T00:18:12.974Z,78.08
2023-02-02T00:20:40.808Z,78.56
2023-02-02T00:23:11.281Z,78.52
2023-02-02T00:25:39.130Z,79.55
2023-02-02T00:28:15.521Z,79.49
2023-02-02T00:30:43.370Z,78.79
2023-02-02T00:33:11.115Z,79.09
2023-02-02T00:35:46.479Z,80.62
2023-02-02T00:38:19.659Z,81.03
2023-02-02T00:40:47.689Z,81.58
2023-02-02T00:43:16.843Z,81.36
2023-02-02T00:45:43.724Z,81.48
2023-02-02T00:48:11.787Z,80.71
2023-02-02T00:50:42.267Z,80.75
2023-02-02T00:53:10.047Z,81.48
2023-02-02T00:55:38.115Z,81.43
2023-02-02T00:58:05.926Z,81.83
2023-02-02T01:00:35.068Z,81.80
2023-02-02T01:03:06.774Z,82.09
2023-02-02T01:05:36.964Z,82.23
2023-02-02T01:08:07.457Z,83.66
2023-02-02T01:10:44.198Z,83.83
2023-02-02T01:13:14.360Z,84.88
2023-02-02T01:15:43.598Z,84.10
2023-02-02T01:18:12.111Z,85.75
2023-02-02T01:20:40.049Z,85.23
2023-02-02T01:23:07.945Z,86.11
2023-02-02T01:25:38.602Z,87.44
2023-02-02T01:28:06.609Z,86.91
2023-02-02T01:30:34.473Z,87.21
2023-02-02T01:33:03.600Z,87.36
2023-02-02T01:35:33.504Z,87.61
2023-02-02T01:38:06.702Z,87.02
2023-02-02T01:40:34.528Z,87.37
2023-02-02T01:43:02.303Z,87.54
2023-02-02T01:45:32.992Z,86.81
2023-02-02T01:48:03.941Z,86.69
2023-02-02T01:50:36.543Z,86.48
2023-02-02T01:53:06.368Z,86.76
2023-02-02T01:55:36.110Z,85.71
2023-02-02T01:58:09.180Z,86.18
2023-02-02T02:00:37.905Z,86.23
2023-02-02T02:03:11.374Z,86.94
2023-02-02T02:05:42.309Z,87.24
2023-02-02T02:08:14.678Z,86.82
2023-02-02T02:10:47.282Z,87.00
2023-02-02T02:13:15.788Z,87.05
2023-02-02T02:16:05.868Z,86.37
2023-02-02T02:18:47.145Z,87.17
2023-02-02T02:21:45.167Z,86.94
2023-02-02T02:24:56.218Z,88.12
2023-02-02T02:27:39.905Z,88.34
2023-02-02T02:30:36.833Z,88.50
2023-02-02T02:33:07.694Z,87.41
2023-02-02T02:35:38.835Z,88.30
2023-02-02T02:38:12.441Z,89.22
2023-02-02T02:40:48.032Z,88.60
2023-02-02T02:43:22.642Z,89.38
2023-02-02T02:45:58.072Z,88.92
2023-02-02T02:48:28.434Z,89.20
2023-02-02T02:51:07.188Z,87.71
2023-02-02T02:53:35.845Z,87.69
2023-02-02T02:56:11.558Z,88.05
2023-02-02T02:58:53.970Z,87.79
2023-02-02T03:01:30.771Z,87.94
2023-02-02T03:04:11.155Z,87.89
2023-02-02T03:06:46.576Z,88.13
2023-02-02T03:09:16.783Z,87.61
2023-02-02T03:11:45.292Z,87.52
2023-02-02T03:14:16.824Z,87.03
2023-02-02T03:16:44.799Z,86.83
2023-02-02T03:19:20.460Z,85.73
2023-02-02T03:21:48.398Z,87.29
2023-02-02T03:24:16.193Z,87.39
2023-02-02T03:26:48.384Z,87.05
2023-02-02T03:29:27.002Z,87.37
2023-02-02T03:31:55.273Z,87.48
2023-02-02T03:34:24.770Z,87.45
2023-02-02T03:36:56.263Z,88.39
2023-02-02T03:39:26.917Z,87.51
2023-02-02T03:41:56.822Z,87.88
2023-02-02T03:44:31.308Z,88.00
2023-02-02T03:46:59.115Z,88.29
2023-02-02T03:49:29.538Z,88.02
2023-02-02T03:51:57.302Z,88.34
2023-02-02T03:54:27.846Z,87.47
2023-02-02T03:56:57.729Z,88.38
2023-02-02T03:59:25.961Z,87.83
2023-02-02T04:01:54.309Z,87.66
2023-02-02T04:04:30.254Z,87.45
2023-02-02T04:07:03.226Z,86.97
2023-02-02T04:09:33.546Z,88.11
2023-02-02T04:12:01.490Z,87.37
2023-02-02T04:14:29.666Z,87.64
2023-02-02T04:17:02.871Z,88.01
2023-02-02T04:19:38.276Z,87.72
2023-02-02T04:22:06.638Z,87.22
2023-02-02T04:24:38.037Z,87.24
2023-02-02T04:27:05.969Z,86.55
2023-02-02T04:29:33.908Z,86.45
2023-02-02T04:32:01.770Z,85.70
2023-02-02T04:34:30.763Z,85.71
2023-02-02T04:37:02.820Z,86.35
2023-02-02T04:39:31.189Z,85.61
2023-02-02T04:41:59.099Z,86.35
2023-02-02T04:44:29.518Z,86.53
2023-02-02T04:46:57.413Z,86.98
2023-02-02T04:49:33.543Z,87.43
2023-02-02T04:52:03.187Z,87.25
2023-02-02T04:54:31.515Z,87.20
2023-02-02T04:56:59.887Z,88.14
2023-02-02T04:59:34.578Z,87.15
2023-02-02T05:02:05.382Z,86.93
2023-02-02T05:04:33.657Z,88.07
2023-02-02T05:07:05.998Z,87.86
2023-02-02T05:09:36.413Z,87.45
2023-02-02T05:12:04.998Z,86.71
2023-02-02T05:14:34.294Z,85.89
2023-02-02T05:17:02.468Z,86.74
2023-02-02T05:19:31.191Z,86.73
2023-02-02T05:22:05.425Z,87.63
2023-02-02T05:24:34.431Z,86.30
2023-02-02T05:27:02.296Z,87.21
2023-02-02T05:29:30.867Z,87.25
2023-02-02T05:32:00.635Z,86.62
2023-02-02T05:34:33.527Z,87.00
2023-02-02T05:37:03.296Z,86.58
2023-02-02T05:39:33.662Z,85.76
2023-02-02T05:42:01.538Z,85.21
2023-02-02T05:44:29.395Z,85.33
2023-02-02T05:47:00.376Z,86.06
2023-02-02T05:49:31.620Z,85.81
2023-02-02T05:52:05.545Z,85.56
2023-02-02T05:54:33.644Z,85.24
2023-02-02T05:57:05.339Z,85.01
2023-02-02T05:59:33.177Z,85.21
2023-02-02T06:02:01.027Z,84.95
2023-02-02T06:04:28.891Z,85.88
2023-02-02T06:06:59.568Z,86.52
2023-02-02T06:09:28.948Z,85.77
2023-02-02T06:11:57.109Z,86.10
2023-02-02T06:14:30.828Z,85.75
2023-02-02T06:17:00.268Z,84.31
2023-02-02T06:19:28.499Z,83.79
2023-02-02T06:21:56.706Z,84.02
2023-02-02T06:24:24.731Z,84.62
2023-02-02T06:26:56.747Z,84.63
2023-02-02T06:29:24.978Z,85.09
2023-02-02T06:31:53.525Z,84.66
2023-02-02T06:34:22.366Z,84.23
2023-02-02T06:36:50.459Z,85.60
2023-02-02T06:39:18.584Z,85.08
2023-02-02T06:41:46.732Z,84.65
2023-02-02T06:44:20.893Z,84.76
2023-02-02T06:46:51.293Z,85.14
2023-02-02T06:49:26.459Z,84.96
2023-02-02T06:51:54.377Z,84.81
2023-02-02T06:54:22.323Z,84.38
2023-02-02T06:56:50.192Z,84.34
2023-02-02T06:59:23.025Z,85.21
2023-02-02T07:01:53.723Z,84.34
2023-02-02T07:04:22.269Z,84.56
2023-02-02T07:06:54.410Z,84.95
2023-02-02T07:09:22.608Z,84.39
2023-02-02T07:11:51.428Z,83.25
2023-02-02T07:14:20.740Z,82.13
2023-02-02T07:16:48.667Z,84.08
2023-02-02T07:19:21.466Z,83.41
2023-02-02T07:21:49.503Z,81.43
2023-02-02T07:24:17.694Z,81.70
2023-02-02T07:26:46.809Z,82.65
2023-02-02T07:29:15.245Z,82.73
2023-02-02T07:31:47.382Z,82.77
2023-02-02T07:34:21.136Z,83.75
2023-02-02T07:36:49.111Z,82.15
2023-02-02T07:39:17.461Z,82.66
2023-02-02T07:41:50.443Z,82.38
2023-02-02T07:44:21.277Z,82.98
2023-02-02T07:46:52.899Z,82.38
2023-02-02T07:49:21.405Z,83.19
2023-02-02T07:51:52.173Z,83.48
2023-02-02T07:54:21.922Z,83.26
2023-02-02T07:56:52.768Z,83.07
2023-02-02T07:59:20.705Z,84.49
2023-02-02T08:01:52.966Z,83.77
2023-02-02T08:04:20.937Z,83.59
2023-02-02T08:06:49.146Z,83.66
2023-02-02T08:09:17.083Z,83.12
2023-02-02T08:11:45.039Z,80.96
2023-02-02T08:14:14.377Z,83.39
2023-02-02T08:16:42.343Z,82.72
2023-02-02T08:19:13.749Z,82.93
2023-02-02T08:21:41.599Z,82.54
2023-02-02T08:24:09.652Z,81.99
2023-02-02T08:26:45.017Z,81.70
2023-02-02T08:29:18.150Z,80.47
2023-02-02T08:31:48.368Z,80.86
2023-02-02T08:34:23.049Z,80.69
2023-02-02T08:36:53.477Z,80.30
2023-02-02T08:39:24.688Z,80.15
2023-02-02T08:41:55.851Z,81.46
2023-02-02T08:44:26.414Z,80.45
2023-02-02T08:46:56.046Z,81.93
2023-02-02T08:49:25.951Z,82.37
2023-02-02T08:51:57.783Z,82.83
2023-02-02T08:54:38.299Z,82.23
2023-02-02T08:57:08.911Z,82.15
2023-02-02T08:59:36.827Z,82.55
2023-02-02T09:02:05.563Z,81.09
2023-02-02T09:04:40.457Z,80.83
2023-02-02T09:07:08.923Z,81.44
2023-02-02T09:09:39.552Z,83.96
2023-02-02T09:12:15.545Z,84.63
2023-02-02T09:14:48.377Z,84.72
2023-02-02T09:17:18.828Z,84.86
2023-02-02T09:19:53.760Z,83.93
2023-02-02T09:22:22.071Z,84.67
2023-02-02T09:24:51.753Z,84.09
2023-02-02T09:27:22.506Z,82.79
2023-02-02T09:29:56.535Z,84.08
2023-02-02T09:32:24.633Z,83.26
2023-02-02T09:34:56.691Z,83.62
2023-02-02T09:37:32.969Z,84.24
2023-02-02T09:40:03.666Z,83.71
2023-02-02T09:42:45.126Z,81.31
2023-02-02T09:45:20.398Z,83.70
2023-02-02T09:47:56.524Z,83.73
2023-02-02T09:50:39.643Z,83.84
2023-02-02T09:53:15.726Z,83.57
2023-02-02T09:55:45.751Z,84.62
2023-02-02T09:58:20.583Z,85.08
2023-02-02T10:01:01.844Z,84.91
2023-02-02T10:03:40.499Z,83.96
2023-02-02T10:06:25.963Z,83.56
2023-02-02T10:08:59.328Z,83.40
2023-02-02T10:11:37.482Z,84.54
2023-02-02T10:14:13.584Z,84.86
2023-02-02T10:16:42.002Z,84.37
2023-02-02T10:19:15.680Z,84.57
2023-02-02T10:21:53.986Z,83.48
2023-02-02T10:24:24.795Z,84.24
2023-02-02T10:26:55.077Z,84.42
2023-02-02T10:29:48.631Z,84.37
2023-02-02T10:32:23.661Z,83.08
2023-02-02T10:35:14.493Z,83.31
2023-02-02T10:37:51.789Z,84.42
2023-02-02T10:40:31.190Z,82.68
2023-02-02T10:43:33.565Z,83.78
2023-02-02T10:46:04.995Z,83.01
2023-02-02T10:48:35.941Z,82.67
2023-02-02T10:51:08.399Z,82.98
2023-02-02T10:53:37.939Z,81.64
2023-02-02T10:56:12.031Z,82.24
2023-02-02T10:58:51.566Z,82.78
2023-02-02T11:01:22.785Z,82.32
2023-02-02T11:04:14.204Z,82.21
2023-02-02T11:06:52.559Z,82.56
2023-02-02T11:09:26.011Z,82.82
2023-02-02T11:12:01.980Z,83.06
2023-02-02T11:14:45.175Z,82.44
2023-02-02T11:17:20.577Z,82.32
2023-02-02T11:19:50.989Z,82.56
2023-02-02T11:22:30.572Z,82.42
2023-02-02T11:25:05.205Z,81.51
2023-02-02T11:27:34.825Z,82.31
2023-02-02T11:30:12.539Z,81.53
2023-02-02T11:32:41.545Z,81.80
2023-02-02T11:35:21.954Z,81.11
2023-02-02T11:38:03.104Z,81.99
2023-02-02T11:40:36.286Z,82.32
2023-02-02T11:43:16.580Z,82.57
2023-02-02T11:45:49.577Z,83.18
2023-02-02T11:48:19.327Z,82.79
2023-02-02T11:50:50.579Z,82.84
2023-02-02T11:53:29.129Z,81.77
2023-02-02T11:56:10.707Z,81.57
2023-02-02T11:58:45.728Z,82.78
2023-02-02T12:01:27.724Z,83.14
2023-02-02T12:03:59.821Z,82.82
2023-02-02T12:06:30.598Z,82.60
2023-02-02T12:09:05.268Z,83.35
2023-02-02T12:11:42.801Z,83.70
2023-02-02T12:14:28.088Z,83.27
2023-02-02T12:17:07.946Z,83.98
2023-02-02T12:19:47.526Z,84.03
2023-02-02T12:22:36.284Z,84.99
2023-02-02T12:25:11.196Z,84.75
2023-02-02T12:27:47.973Z,85.97
2023-02-02T12:30:26.447Z,86.13
2023-02-02T12:33:14.985Z,85.92
2023-02-02T12:35:55.221Z,86.12
2023-02-02T12:38:31.608Z,87.06
2023-02-02T12:41:23.720Z,85.51
2023-02-02T12:44:00.605Z,86.51
2023-02-02T12:46:41.559Z,86.58
2023-02-02T12:49:32.655Z,87.01
2023-02-02T12:52:23.459Z,87.15
2023-02-02T12:55:13.561Z,88.21
2023-02-02T12:57:57.801Z,88.67
2023-02-02T13:00:54.646Z,87.89
2023-02-02T13:03:30.367Z,88.00
2023-02-02T13:06:17.298Z,88.66
2023-02-02T13:08:54.598Z,88.38
2023-02-02T13:11:35.087Z,87.96
2023-02-02T13:14:14.189Z,87.83
2023-02-02T13:16:49.886Z,86.52
2023-02-02T13:19:27.644Z,86.76
2023-02-02T13:22:00.671Z,86.95
2023-02-02T13:24:33.708Z,85.93
2023-02-02T13:27:09.515Z,84.70
2023-02-02T13:29:47.845Z,84.35
2023-02-02T13:32:22.696Z,83.44
2023-02-02T13:34:53.812Z,86.10
2023-02-02T13:37:27.645Z,87.21
2023-02-02T13:39:57.862Z,87.60
2023-02-02T13:42:38.121Z,87.04
2023-02-02T13:45:18.792Z,86.86
2023-02-02T13:47:55.286Z,85.92
2023-02-02T13:50:30.147Z,84.34
2023-02-02T13:53:17.330Z,83.51
2023-02-02T13:56:04.012Z,84.97
2023-02-02T13:58:55.126Z,83.92
2023-02-02T14:01:23.584Z,84.58
2023-02-02T14:03:55.708Z,84.61
2023-02-02T14:06:33.069Z,84.03
2023-02-02T14:09:06.648Z,84.04
2023-02-02T14:11:37.332Z,83.09
2023-02-02T14:14:29.771Z,83.71
2023-02-02T14:16:57.792Z,83.56
2023-02-02T14:19:57.976Z,82.48
2023-02-02T14:22:44.624Z,83.56
2023-02-02T14:25:55.678Z,82.97
2023-02-02T14:28:47.888Z,83.53
2023-02-02T14:31:44.292Z,82.86
2023-02-02T14:34:39.529Z,83.13
2023-02-02T14:37:43.005Z,82.36
2023-02-02T14:40:25.527Z,82.68
2023-02-02T14:43:19.129Z,82.96
2023-02-02T14:45:48.781Z,82.19
2023-02-02T14:48:21.183Z,80.95
2023-02-02T14:50:54.089Z,81.63
2023-02-02T14:53:29.188Z,81.19
2023-02-02T14:56:06.769Z,81.90
2023-02-02T14:58:40.297Z,81.57
2023-02-02T15:01:28.046Z,80.78
2023-02-02T15:03:57.433Z,80.09
2023-02-02T15:06:34.619Z,81.66
2023-02-02T15:09:31.222Z,81.15
2023-02-02T15:12:35.626Z,81.47
2023-02-02T15:15:25.256Z,80.08
2023-02-02T15:18:16.696Z,82.10
2023-02-02T15:20:48.899Z,82.14
2023-02-02T15:23:25.906Z,81.42
2023-02-02T15:26:02.369Z,81.32
2023-02-02T15:28:39.470Z,81.51
2023-02-02T15:31:16.353Z,82.11
2023-02-02T15:33:51.503Z,82.04
2023-02-02T15:36:25.581Z,81.09
2023-02-02T15:39:00.866Z,80.98
2023-02-02T15:41:38.660Z,81.11
2023-02-02T15:44:19.736Z,80.42
2023-02-02T15:46:49.088Z,78.83
2023-02-02T15:49:34.647Z,80.02
2023-02-02T15:52:11.108Z,79.15
2023-02-02T15:54:43.633Z,77.41
2023-02-02T15:57:26.091Z,78.09
2023-02-02T15:59:57.039Z,78.85
2023-02-02T16:02:31.335Z,79.33
2023-02-02T16:05:09.548Z,80.29
2023-02-02T16:07:37.455Z,79.17
2023-02-02T16:10:07.229Z,79.81
2023-02-02T16:12:37.113Z,79.64
2023-02-02T16:15:06.636Z,80.04
2023-02-02T16:17:43.366Z,79.73
2023-02-02T16:20:14.702Z,80.53
2023-02-02T16:22:56.121Z,80.58
2023-02-02T16:25:25.190Z,80.46
2023-02-02T16:27:54.699Z,80.82
2023-02-02T16:30:33.486Z,80.93
2023-02-02T16:33:28.167Z,79.94
2023-02-02T16:35:57.283Z,81.55
2023-02-02T16:38:32.349Z,82.02
2023-02-02T16:41:06.481Z,82.21
2023-02-02T16:43:38.863Z,83.07
2023-02-02T16:46:08.989Z,82.87
2023-02-02T16:48:38.668Z,81.90
2023-02-02T16:51:33.578Z,82.31
2023-02-02T16:54:06.456Z,83.56
2023-02-02T16:56:36.666Z,83.48
2023-02-02T16:59:09.603Z,84.91
2023-02-02T17:01:39.808Z,84.39
2023-02-02T17:04:15.980Z,83.97
2023-02-02T17:06:52.335Z,83.81
2023-02-02T17:09:36.308Z,82.53
2023-02-02T17:12:16.793Z,84.02
2023-02-02T17:14:54.725Z,83.47
2023-02-02T17:17:22.671Z,82.88
2023-02-02T17:19:51.263Z,84.13
2023-02-02T17:22:24.202Z,85.17
2023-02-02T17:24:56.865Z,85.63
2023-02-02T17:27:28.166Z,87.37
2023-02-02T17:29:59.207Z,84.94
2023-02-02T17:32:27.519Z,84.58
2023-02-02T17:35:04.503Z,85.39
2023-02-02T17:37:34.482Z,85.53
2023-02-02T17:40:07.111Z,84.12
2023-02-02T17:42:35.854Z,84.36
2023-02-02T17:45:07.422Z,83.81
2023-02-02T17:47:37.923Z,83.85
2023-02-02T17:50:06.529Z,83.55
2023-02-02T17:52:34.833Z,86.09
2023-02-02T17:55:05.873Z,84.79
2023-02-02T17:57:33.726Z,85.72
2023-02-02T18:00:04.848Z,85.25
2023-02-02T18:02:35.118Z,86.23
2023-02-02T18:05:03.746Z,86.13
2023-02-02T18:07:31.992Z,86.46
2023-02-02T18:10:01.680Z,85.01
2023-02-02T18:12:37.514Z,86.09
2023-02-02T18:15:14.287Z,85.58
2023-02-02T18:17:45.048Z,84.93
2023-02-02T18:20:16.115Z,84.45
2023-02-02T18:22:48.738Z,84.71
2023-02-02T18:25:16.739Z,85.39
2023-02-02T18:27:46.872Z,85.49
2023-02-02T18:30:15.507Z,87.09
2023-02-02T18:32:46.629Z,86.80
2023-02-02T18:35:14.666Z,87.27
2023-02-02T18:37:45.126Z,87.13
2023-02-02T18:40:14.118Z,86.79
2023-02-02T18:42:42.208Z,87.20
2023-02-02T18:45:11.111Z,86.96
2023-02-02T18:47:41.332Z,86.26
2023-02-02T18:50:12.375Z,86.37
2023-02-02T18:52:40.221Z,86.53
2023-02-02T18:55:17.977Z,85.41
2023-02-02T18:57:46.498Z,85.34
2023-02-02T19:00:17.371Z,85.43
2023-02-02T19:02:48.342Z,86.20
2023-02-02T19:05:40.211Z,85.07
2023-02-02T19:08:08.168Z,85.79
2023-02-02T19:10:37.949Z,84.10
2023-02-02T19:13:18.135Z,85.57
2023-02-02T19:15:51.091Z,85.25
2023-02-02T19:18:24.243Z,85.03
2023-02-02T19:20:54.787Z,84.98
2023-02-02T19:23:24.352Z,84.71
2023-02-02T19:25:54.156Z,84.34
2023-02-02T19:28:24.681Z,82.96
2023-02-02T19:30:55.916Z,83.73
2023-02-02T19:33:29.725Z,83.97
2023-02-02T19:36:00.932Z,82.71
2023-02-02T19:38:33.782Z,83.07
2023-02-02T19:41:04.292Z,83.12
2023-02-02T19:43:33.239Z,82.94
2023-02-02T19:46:01.667Z,81.67
2023-02-02T19:48:35.596Z,82.54
2023-02-02T19:51:27.910Z,82.88
2023-02-02T19:53:58.921Z,83.31
2023-02-02T19:56:39.655Z,84.26
2023-02-02T19:59:12.414Z,84.18
2023-02-02T20:01:40.635Z,84.32
2023-02-02T20:04:15.699Z,84.37
2023-02-02T20:06:58.038Z,84.84
2023-02-02T20:09:37.304Z,84.17
2023-02-02T20:12:22.231Z,84.19
2023-02-02T20:14:50.409Z,83.98
2023-02-02T20:17:29.248Z,83.62
2023-02-02T20:19:57.156Z,84.29
2023-02-02T20:22:29.773Z,84.82
2023-02-02T20:24:58.717Z,84.58
2023-02-02T20:27:40.647Z,83.73
2023-02-02T20:30:31.019Z,82.49
2023-02-02T20:33:01.532Z,83.80
2023-02-02T20:35:36.770Z,82.42
2023-02-02T20:38:21.763Z,82.75
2023-02-02T20:40:49.669Z,83.04
2023-02-02T20:43:20.034Z,83.71
2023-02-02T20:45:51.947Z,83.34
2023-02-02T20:48:19.906Z,82.57
2023-02-02T20:50:48.086Z,83.58
2023-02-02T20:53:23.490Z,82.58
2023-02-02T20:55:57.254Z,81.10
2023-02-02T20:58:29.290Z,80.49
2023-02-02T21:01:00.355Z,81.46
2023-02-02T21:03:32.706Z,79.89
2023-02-02T21:06:01.435Z,81.30
2023-02-02T21:08:30.673Z,81.59
2023-02-02T21:10:58.521Z,81.25
2023-02-02T21:13:29.508Z,80.99
2023-02-02T21:15:59.115Z,81.92
2023-02-02T21:18:27.247Z,81.60
2023-02-02T21:20:56.915Z,80.86
2023-02-02T21:23:24.956Z,80.01
2023-02-02T21:26:07.174Z,80.63
2023-02-02T21:28:39.603Z,79.84
2023-02-02T21:31:12.176Z,80.56
2023-02-02T21:33:45.605Z,79.96
2023-02-02T21:36:28.108Z,81.08
2023-02-02T21:39:04.212Z,80.87
2023-02-02T21:41:36.337Z,80.88
2023-02-02T21:44:13.010Z,79.98
2023-02-02T21:46:44.499Z,80.72
2023-02-02T21:49:23.260Z,81.15
2023-02-02T21:51:52.284Z,80.99
2023-02-02T21:54:25.477Z,80.99
2023-02-02T21:56:57.330Z,81.70
2023-02-02T21:59:30.257Z,82.28
2023-02-02T22:01:58.427Z,81.02
2023-02-02T22:04:28.523Z,80.00
2023-02-02T22:07:01.523Z,82.00
2023-02-02T22:09:31.784Z,80.93
2023-02-02T22:12:03.561Z,80.65
2023-02-02T22:14:38.423Z,81.28
2023-02-02T22:17:20.010Z,81.72
2023-02-02T22:19:48.100Z,81.82
2023-02-02T22:22:20.316Z,83.05
2023-02-02T22:24:54.404Z,82.25
2023-02-02T22:27:40.077Z,82.37
2023-02-02T22:30:19.535Z,81.79
2023-02-02T22:33:03.764Z,81.83
2023-02-02T22:35:31.601Z,80.67
2023-02-02T22:37:59.366Z,81.46
2023-02-02T22:40:29.910Z,82.09
2023-02-02T22:43:01.218Z,81.92
2023-02-02T22:45:30.520Z,82.42
2023-02-02T22:47:59.607Z,83.04
2023-02-02T22:50:43.488Z,82.81
2023-02-02T22:53:12.477Z,82.26
2023-02-02T22:55:41.584Z,82.93
2023-02-02T22:58:14.073Z,83.26
2023-02-02T23:00:48.020Z,84.25
2023-02-02T23:03:15.906Z,85.58
2023-02-02T23:05:49.414Z,83.83
2023-02-02T23:08:22.084Z,84.75
2023-02-02T23:10:52.438Z,85.54
2023-02-02T23:13:24.357Z,84.68
2023-02-02T23:16:13.310Z,82.64
2023-02-02T23:18:43.786Z,84.11
2023-02-02T23:21:17.643Z,84.62
2023-02-02T23:23:45.448Z,85.09
2023-02-02T23:26:13.301Z,84.86
2023-02-02T23:28:42.986Z,85.51
2023-02-02T23:31:12.774Z,86.09
2023-02-02T23:33:45.359Z,86.42
2023-02-02T23:36:13.414Z,86.92
2023-02-02T23:38:44.113Z,87.08
2023-02-02T23:41:13.585Z,86.63
2023-02-02T23:43:44.077Z,85.89
2023-02-02T23:46:14.961Z,86.80
2023-02-02T23:48:45.540Z,86.83
2023-02-02T23:51:15.348Z,85.45
2023-02-02T23:53:45.333Z,86.61
2023-02-02T23:56:16.482Z,85.08
2023-02-02T23:58:45.592Z,85.96
